sensor_id;sensor_type;location;lat;lon;timestamp;P1;durP1;ratioP1;P2;durP2;ratioP2
23702;SDS011;12030;50.376;8.762;2023-04-06T00:00:05;5.00;;;3.63;;
23702;SDS011;12030;50.376;8.762;2023-04-06T00:02:33;5.10;;;3.87;;
23702;SDS011;12030;50.376;8.762;2023-04-06T00:04:59;4.40;;;3.57;;
23702;SDS011;12030;50.376;8.762;2023-04-06T00:07:25;7.00;;;4.00;;
23702;SDS011;12030;50.376;8.762;2023-04-06T00:09:51;5.23;;;3.77;;
23702;SDS011;12030;50.376;8.762;2023-04-06T00:12:16;5.50;;;3.80;;
23702;SDS011;12030;50.376;8.762;2023-04-06T00:14:42;4.97;;;3.87;;
23702;SDS011;12030;50.376;8.762;2023-04-06T00:17:07;4.77;;;3.70;;
23702;SDS011;12030;50.376;8.762;2023-04-06T00:19:33;3.60;;;3.30;;
23702;SDS011;12030;50.376;8.762;2023-04-06T00:21:58;5.57;;;3.80;;
23702;SDS011;12030;50.376;8.762;2023-04-06T00:24:24;6.67;;;3.70;;
23702;SDS011;12030;50.376;8.762;2023-04-06T00:26:50;5.57;;;3.70;;
23702;SDS011;12030;50.376;8.762;2023-04-06T00:29:15;5.37;;;3.90;;
23702;SDS011;12030;50.376;8.762;2023-04-06T00:31:41;5.83;;;3.60;;
23702;SDS011;12030;50.376;8.762;2023-04-06T00:34:06;5.70;;;4.10;;
23702;SDS011;12030;50.376;8.762;2023-04-06T00:36:32;7.30;;;3.63;;
23702;SDS011;12030;50.376;8.762;2023-04-06T00:38:57;7.23;;;3.83;;
23702;SDS011;12030;50.376;8.762;2023-04-06T00:41:23;4.53;;;3.80;;
23702;SDS011;12030;50.376;8.762;2023-04-06T00:43:48;4.40;;;3.73;;
23702;SDS011;12030;50.376;8.762;2023-04-06T00:46:14;5.13;;;3.47;;
23702;SDS011;12030;50.376;8.762;2023-04-06T00:48:39;4.87;;;4.07;;
23702;SDS011;12030;50.376;8.762;2023-04-06T00:51:05;5.27;;;3.20;;
23702;SDS011;12030;50.376;8.762;2023-04-06T00:53:31;4.90;;;3.30;;
23702;SDS011;12030;50.376;8.762;2023-04-06T00:55:57;5.80;;;3.40;;
23702;SDS011;12030;50.376;8.762;2023-04-06T00:58:23;3.90;;;3.13;;
23702;SDS011;12030;50.376;8.762;2023-04-06T01:00:49;4.53;;;3.70;;
23702;SDS011;12030;50.376;8.762;2023-04-06T01:03:15;5.40;;;3.80;;
23702;SDS011;12030;50.376;8.762;2023-04-06T01:05:40;5.10;;;3.77;;
23702;SDS011;12030;50.376;8.762;2023-04-06T01:08:07;4.00;;;3.47;;
23702;SDS011;12030;50.376;8.762;2023-04-06T01:10:33;8.37;;;3.80;;
23702;SDS011;12030;50.376;8.762;2023-04-06T01:12:58;5.23;;;3.70;;
23702;SDS011;12030;50.376;8.762;2023-04-06T01:15:24;3.73;;;3.40;;
23702;SDS011;12030;50.376;8.762;2023-04-06T01:17:50;6.50;;;3.10;;
23702;SDS011;12030;50.376;8.762;2023-04-06T01:20:16;4.67;;;3.60;;
23702;SDS011;12030;50.376;8.762;2023-04-06T01:22:41;6.97;;;3.80;;
23702;SDS011;12030;50.376;8.762;2023-04-06T01:25:07;6.63;;;3.87;;
23702;SDS011;12030;50.376;8.762;2023-04-06T01:27:33;4.93;;;3.40;;
23702;SDS011;12030;50.376;8.762;2023-04-06T01:29:59;5.27;;;3.67;;
23702;SDS011;12030;50.376;8.762;2023-04-06T01:32:25;3.60;;;3.23;;
23702;SDS011;12030;50.376;8.762;2023-04-06T01:34:50;5.00;;;3.40;;
23702;SDS011;12030;50.376;8.762;2023-04-06T01:37:16;3.70;;;3.30;;
23702;SDS011;12030;50.376;8.762;2023-04-06T01:39:42;9.53;;;4.17;;
23702;SDS011;12030;50.376;8.762;2023-04-06T01:42:08;5.20;;;3.77;;
23702;SDS011;12030;50.376;8.762;2023-04-06T01:44:33;6.23;;;4.30;;
23702;SDS011;12030;50.376;8.762;2023-04-06T01:46:59;4.10;;;3.33;;
23702;SDS011;12030;50.376;8.762;2023-04-06T01:49:25;3.87;;;3.47;;
23702;SDS011;12030;50.376;8.762;2023-04-06T01:51:50;6.03;;;3.77;;
23702;SDS011;12030;50.376;8.762;2023-04-06T01:54:17;4.07;;;3.67;;
23702;SDS011;12030;50.376;8.762;2023-04-06T01:56:42;4.73;;;3.33;;
23702;SDS011;12030;50.376;8.762;2023-04-06T01:59:08;5.50;;;4.17;;
23702;SDS011;12030;50.376;8.762;2023-04-06T02:01:33;5.37;;;3.73;;
23702;SDS011;12030;50.376;8.762;2023-04-06T02:03:59;4.50;;;3.53;;
23702;SDS011;12030;50.376;8.762;2023-04-06T02:06:25;5.37;;;3.70;;
23702;SDS011;12030;50.376;8.762;2023-04-06T02:08:51;4.13;;;3.50;;
23702;SDS011;12030;50.376;8.762;2023-04-06T02:11:17;4.00;;;3.60;;
23702;SDS011;12030;50.376;8.762;2023-04-06T02:13:42;4.30;;;3.70;;
23702;SDS011;12030;50.376;8.762;2023-04-06T02:16:08;5.53;;;3.60;;
23702;SDS011;12030;50.376;8.762;2023-04-06T02:18:33;4.70;;;3.10;;
23702;SDS011;12030;50.376;8.762;2023-04-06T02:20:59;8.07;;;3.70;;
23702;SDS011;12030;50.376;8.762;2023-04-06T02:23:25;4.73;;;3.37;;
23702;SDS011;12030;50.376;8.762;2023-04-06T02:25:51;5.47;;;3.50;;
23702;SDS011;12030;50.376;8.762;2023-04-06T02:28:17;3.60;;;3.00;;
23702;SDS011;12030;50.376;8.762;2023-04-06T02:30:42;4.43;;;3.30;;
23702;SDS011;12030;50.376;8.762;2023-04-06T02:33:08;6.00;;;3.70;;
23702;SDS011;12030;50.376;8.762;2023-04-06T02:35:33;4.00;;;3.47;;
23702;SDS011;12030;50.376;8.762;2023-04-06T02:37:59;3.67;;;3.20;;
23702;SDS011;12030;50.376;8.762;2023-04-06T02:40:24;4.73;;;3.87;;
23702;SDS011;12030;50.376;8.762;2023-04-06T02:42:50;4.87;;;3.70;;
23702;SDS011;12030;50.376;8.762;2023-04-06T02:45:15;5.40;;;3.93;;
23702;SDS011;12030;50.376;8.762;2023-04-06T02:47:41;5.37;;;3.43;;
23702;SDS011;12030;50.376;8.762;2023-04-06T02:50:07;4.43;;;3.33;;
23702;SDS011;12030;50.376;8.762;2023-04-06T02:52:33;3.43;;;3.13;;
23702;SDS011;12030;50.376;8.762;2023-04-06T02:54:58;4.67;;;3.60;;
23702;SDS011;12030;50.376;8.762;2023-04-06T02:57:24;4.50;;;3.60;;
23702;SDS011;12030;50.376;8.762;2023-04-06T02:59:49;5.83;;;4.10;;
23702;SDS011;12030;50.376;8.762;2023-04-06T03:02:15;4.77;;;3.67;;
23702;SDS011;12030;50.376;8.762;2023-04-06T03:04:41;5.73;;;3.73;;
23702;SDS011;12030;50.376;8.762;2023-04-06T03:07:07;4.37;;;3.50;;
23702;SDS011;12030;50.376;8.762;2023-04-06T03:09:33;3.53;;;3.23;;
23702;SDS011;12030;50.376;8.762;2023-04-06T03:11:59;4.67;;;3.40;;
23702;SDS011;12030;50.376;8.762;2023-04-06T03:14:25;5.53;;;3.80;;
23702;SDS011;12030;50.376;8.762;2023-04-06T03:16:52;4.63;;;3.30;;
23702;SDS011;12030;50.376;8.762;2023-04-06T03:19:17;4.37;;;3.30;;
23702;SDS011;12030;50.376;8.762;2023-04-06T03:21:43;4.77;;;3.20;;
23702;SDS011;12030;50.376;8.762;2023-04-06T03:24:08;3.60;;;3.10;;
23702;SDS011;12030;50.376;8.762;2023-04-06T03:26:34;4.40;;;3.63;;
23702;SDS011;12030;50.376;8.762;2023-04-06T03:28:59;3.70;;;3.20;;
23702;SDS011;12030;50.376;8.762;2023-04-06T03:31:25;3.83;;;3.50;;
23702;SDS011;12030;50.376;8.762;2023-04-06T03:33:51;5.90;;;3.83;;
23702;SDS011;12030;50.376;8.762;2023-04-06T03:36:17;4.10;;;3.60;;
23702;SDS011;12030;50.376;8.762;2023-04-06T03:38:42;5.37;;;3.60;;
23702;SDS011;12030;50.376;8.762;2023-04-06T03:41:08;4.33;;;3.37;;
23702;SDS011;12030;50.376;8.762;2023-04-06T03:43:33;5.10;;;3.50;;
23702;SDS011;12030;50.376;8.762;2023-04-06T03:45:59;4.57;;;3.50;;
23702;SDS011;12030;50.376;8.762;2023-04-06T03:48:24;4.10;;;3.27;;
23702;SDS011;12030;50.376;8.762;2023-04-06T03:50:50;4.80;;;3.70;;
23702;SDS011;12030;50.376;8.762;2023-04-06T03:53:15;3.80;;;3.10;;
23702;SDS011;12030;50.376;8.762;2023-04-06T03:55:41;3.40;;;3.03;;
23702;SDS011;12030;50.376;8.762;2023-04-06T03:58:06;3.87;;;3.27;;
23702;SDS011;12030;50.376;8.762;2023-04-06T04:00:32;5.30;;;3.83;;
23702;SDS011;12030;50.376;8.762;2023-04-06T04:02:58;3.80;;;3.20;;
23702;SDS011;12030;50.376;8.762;2023-04-06T04:05:23;5.37;;;4.47;;
23702;SDS011;12030;50.376;8.762;2023-04-06T04:07:50;3.87;;;3.43;;
23702;SDS011;12030;50.376;8.762;2023-04-06T04:10:16;4.90;;;3.47;;
23702;SDS011;12030;50.376;8.762;2023-04-06T04:12:42;5.43;;;3.60;;
23702;SDS011;12030;50.376;8.762;2023-04-06T04:15:08;4.60;;;3.37;;
23702;SDS011;12030;50.376;8.762;2023-04-06T04:17:34;6.43;;;3.23;;
23702;SDS011;12030;50.376;8.762;2023-04-06T04:19:59;5.07;;;3.60;;
23702;SDS011;12030;50.376;8.762;2023-04-06T04:22:25;4.13;;;3.13;;
23702;SDS011;12030;50.376;8.762;2023-04-06T04:24:52;4.37;;;3.13;;
23702;SDS011;12030;50.376;8.762;2023-04-06T04:27:18;4.07;;;3.60;;
23702;SDS011;12030;50.376;8.762;2023-04-06T04:29:43;5.23;;;3.90;;
23702;SDS011;12030;50.376;8.762;2023-04-06T04:32:09;4.30;;;3.53;;
23702;SDS011;12030;50.376;8.762;2023-04-06T04:34:35;4.70;;;4.00;;
23702;SDS011;12030;50.376;8.762;2023-04-06T04:37:01;5.20;;;3.60;;
23702;SDS011;12030;50.376;8.762;2023-04-06T04:39:26;3.73;;;3.33;;
23702;SDS011;12030;50.376;8.762;2023-04-06T04:41:52;4.53;;;3.50;;
23702;SDS011;12030;50.376;8.762;2023-04-06T04:44:18;4.13;;;3.60;;
23702;SDS011;12030;50.376;8.762;2023-04-06T04:46:44;5.87;;;3.97;;
23702;SDS011;12030;50.376;8.762;2023-04-06T04:49:09;4.20;;;3.23;;
23702;SDS011;12030;50.376;8.762;2023-04-06T04:51:35;7.50;;;4.67;;
23702;SDS011;12030;50.376;8.762;2023-04-06T04:54:01;3.60;;;3.30;;
23702;SDS011;12030;50.376;8.762;2023-04-06T04:56:26;4.73;;;3.93;;
23702;SDS011;12030;50.376;8.762;2023-04-06T04:58:52;4.57;;;3.60;;
23702;SDS011;12030;50.376;8.762;2023-04-06T05:01:18;9.77;;;4.13;;
23702;SDS011;12030;50.376;8.762;2023-04-06T05:03:43;4.87;;;3.60;;
23702;SDS011;12030;50.376;8.762;2023-04-06T05:06:09;3.73;;;3.33;;
23702;SDS011;12030;50.376;8.762;2023-04-06T05:08:34;5.37;;;3.60;;
23702;SDS011;12030;50.376;8.762;2023-04-06T05:11:00;5.03;;;3.47;;
23702;SDS011;12030;50.376;8.762;2023-04-06T05:13:25;6.03;;;3.77;;
23702;SDS011;12030;50.376;8.762;2023-04-06T05:15:51;6.03;;;4.27;;
23702;SDS011;12030;50.376;8.762;2023-04-06T05:18:16;7.40;;;4.20;;
23702;SDS011;12030;50.376;8.762;2023-04-06T05:20:42;4.67;;;3.70;;
23702;SDS011;12030;50.376;8.762;2023-04-06T05:23:08;5.10;;;3.77;;
23702;SDS011;12030;50.376;8.762;2023-04-06T05:25:33;4.97;;;3.60;;
23702;SDS011;12030;50.376;8.762;2023-04-06T05:27:59;5.17;;;3.90;;
23702;SDS011;12030;50.376;8.762;2023-04-06T05:30:25;5.40;;;3.93;;
23702;SDS011;12030;50.376;8.762;2023-04-06T05:32:50;4.70;;;3.70;;
23702;SDS011;12030;50.376;8.762;2023-04-06T05:35:16;7.20;;;4.07;;
23702;SDS011;12030;50.376;8.762;2023-04-06T05:37:42;6.10;;;4.00;;
23702;SDS011;12030;50.376;8.762;2023-04-06T05:40:08;5.30;;;4.13;;
23702;SDS011;12030;50.376;8.762;2023-04-06T05:42:37;7.60;;;4.63;;
23702;SDS011;12030;50.376;8.762;2023-04-06T05:45:05;4.23;;;3.83;;
23702;SDS011;12030;50.376;8.762;2023-04-06T05:47:31;3.93;;;3.50;;
23702;SDS011;12030;50.376;8.762;2023-04-06T05:49:56;6.77;;;4.17;;
23702;SDS011;12030;50.376;8.762;2023-04-06T05:52:22;4.87;;;3.87;;
23702;SDS011;12030;50.376;8.762;2023-04-06T05:54:47;5.27;;;4.30;;
23702;SDS011;12030;50.376;8.762;2023-04-06T05:57:13;9.87;;;5.07;;
23702;SDS011;12030;50.376;8.762;2023-04-06T05:59:38;8.03;;;5.43;;
23702;SDS011;12030;50.376;8.762;2023-04-06T06:02:04;9.87;;;4.73;;
23702;SDS011;12030;50.376;8.762;2023-04-06T06:04:30;6.40;;;4.20;;
23702;SDS011;12030;50.376;8.762;2023-04-06T06:06:56;5.77;;;4.67;;
23702;SDS011;12030;50.376;8.762;2023-04-06T06:09:21;11.60;;;5.57;;
23702;SDS011;12030;50.376;8.762;2023-04-06T06:11:48;7.70;;;4.83;;
23702;SDS011;12030;50.376;8.762;2023-04-06T06:14:14;12.40;;;5.37;;
23702;SDS011;12030;50.376;8.762;2023-04-06T06:16:40;8.77;;;4.93;;
23702;SDS011;12030;50.376;8.762;2023-04-06T06:19:05;7.10;;;5.43;;
23702;SDS011;12030;50.376;8.762;2023-04-06T06:21:31;6.17;;;5.40;;
23702;SDS011;12030;50.376;8.762;2023-04-06T06:23:56;7.67;;;6.17;;
23702;SDS011;12030;50.376;8.762;2023-04-06T06:26:22;12.60;;;6.10;;
23702;SDS011;12030;50.376;8.762;2023-04-06T06:28:48;7.50;;;6.07;;
23702;SDS011;12030;50.376;8.762;2023-04-06T06:31:13;6.87;;;5.70;;
23702;SDS011;12030;50.376;8.762;2023-04-06T06:33:39;12.30;;;5.10;;
23702;SDS011;12030;50.376;8.762;2023-04-06T06:36:05;7.20;;;5.93;;
23702;SDS011;12030;50.376;8.762;2023-04-06T06:38:30;7.90;;;5.80;;
23702;SDS011;12030;50.376;8.762;2023-04-06T06:40:56;6.77;;;5.50;;
23702;SDS011;12030;50.376;8.762;2023-04-06T06:43:21;9.20;;;6.00;;
23702;SDS011;12030;50.376;8.762;2023-04-06T06:45:47;9.13;;;6.13;;
23702;SDS011;12030;50.376;8.762;2023-04-06T06:48:12;9.40;;;6.13;;
23702;SDS011;12030;50.376;8.762;2023-04-06T06:50:38;10.97;;;6.97;;
23702;SDS011;12030;50.376;8.762;2023-04-06T06:53:03;7.67;;;6.40;;
23702;SDS011;12030;50.376;8.762;2023-04-06T06:55:29;7.60;;;6.73;;
23702;SDS011;12030;50.376;8.762;2023-04-06T06:57:55;12.43;;;6.33;;
23702;SDS011;12030;50.376;8.762;2023-04-06T07:00:20;8.03;;;6.60;;
23702;SDS011;12030;50.376;8.762;2023-04-06T07:02:46;7.73;;;6.67;;
23702;SDS011;12030;50.376;8.762;2023-04-06T07:05:13;9.53;;;6.60;;
23702;SDS011;12030;50.376;8.762;2023-04-06T07:07:38;9.90;;;6.40;;
23702;SDS011;12030;50.376;8.762;2023-04-06T07:10:04;12.37;;;7.03;;
23702;SDS011;12030;50.376;8.762;2023-04-06T07:12:30;12.30;;;7.10;;
23702;SDS011;12030;50.376;8.762;2023-04-06T07:14:55;9.17;;;7.27;;
23702;SDS011;12030;50.376;8.762;2023-04-06T07:17:21;9.23;;;6.73;;
23702;SDS011;12030;50.376;8.762;2023-04-06T07:19:46;8.17;;;6.53;;
23702;SDS011;12030;50.376;8.762;2023-04-06T07:22:12;9.07;;;6.67;;
23702;SDS011;12030;50.376;8.762;2023-04-06T07:24:38;8.60;;;6.60;;
23702;SDS011;12030;50.376;8.762;2023-04-06T07:27:03;7.60;;;6.53;;
23702;SDS011;12030;50.376;8.762;2023-04-06T07:29:29;10.13;;;6.40;;
23702;SDS011;12030;50.376;8.762;2023-04-06T07:31:54;8.60;;;6.50;;
23702;SDS011;12030;50.376;8.762;2023-04-06T07:34:20;9.23;;;6.47;;
23702;SDS011;12030;50.376;8.762;2023-04-06T07:36:46;6.73;;;5.87;;
23702;SDS011;12030;50.376;8.762;2023-04-06T07:39:12;8.93;;;7.20;;
23702;SDS011;12030;50.376;8.762;2023-04-06T07:41:38;8.20;;;6.33;;
23702;SDS011;12030;50.376;8.762;2023-04-06T07:44:04;6.87;;;5.87;;
23702;SDS011;12030;50.376;8.762;2023-04-06T07:46:30;7.50;;;6.30;;
23702;SDS011;12030;50.376;8.762;2023-04-06T07:48:56;7.80;;;6.13;;
23702;SDS011;12030;50.376;8.762;2023-04-06T07:51:23;9.40;;;7.40;;
23702;SDS011;12030;50.376;8.762;2023-04-06T07:53:49;8.73;;;7.10;;
23702;SDS011;12030;50.376;8.762;2023-04-06T07:56:15;12.73;;;6.90;;
23702;SDS011;12030;50.376;8.762;2023-04-06T07:58:41;9.30;;;6.67;;
23702;SDS011;12030;50.376;8.762;2023-04-06T08:01:06;9.17;;;7.27;;
23702;SDS011;12030;50.376;8.762;2023-04-06T08:03:33;10.97;;;6.87;;
23702;SDS011;12030;50.376;8.762;2023-04-06T08:05:59;9.00;;;7.10;;
23702;SDS011;12030;50.376;8.762;2023-04-06T08:08:25;10.07;;;7.07;;
23702;SDS011;12030;50.376;8.762;2023-04-06T08:10:50;10.60;;;7.17;;
23702;SDS011;12030;50.376;8.762;2023-04-06T08:13:16;9.87;;;8.07;;
23702;SDS011;12030;50.376;8.762;2023-04-06T08:15:42;10.17;;;7.87;;
23702;SDS011;12030;50.376;8.762;2023-04-06T08:18:08;10.07;;;7.70;;
23702;SDS011;12030;50.376;8.762;2023-04-06T08:20:34;10.07;;;7.40;;
23702;SDS011;12030;50.376;8.762;2023-04-06T08:22:59;14.60;;;7.77;;
23702;SDS011;12030;50.376;8.762;2023-04-06T08:25:25;9.83;;;7.70;;
23702;SDS011;12030;50.376;8.762;2023-04-06T08:27:51;12.00;;;7.73;;
23702;SDS011;12030;50.376;8.762;2023-04-06T08:30:16;11.20;;;7.83;;
23702;SDS011;12030;50.376;8.762;2023-04-06T08:32:43;12.80;;;8.43;;
23702;SDS011;12030;50.376;8.762;2023-04-06T08:35:10;12.10;;;8.17;;
23702;SDS011;12030;50.376;8.762;2023-04-06T08:37:35;10.90;;;9.00;;
23702;SDS011;12030;50.376;8.762;2023-04-06T08:40:01;11.20;;;9.03;;
23702;SDS011;12030;50.376;8.762;2023-04-06T08:42:28;12.93;;;8.27;;
23702;SDS011;12030;50.376;8.762;2023-04-06T08:44:58;9.70;;;8.53;;
23702;SDS011;12030;50.376;8.762;2023-04-06T08:47:24;10.03;;;8.57;;
23702;SDS011;12030;50.376;8.762;2023-04-06T08:49:50;9.17;;;8.10;;
23702;SDS011;12030;50.376;8.762;2023-04-06T08:52:17;11.97;;;9.47;;
23702;SDS011;12030;50.376;8.762;2023-04-06T08:54:44;11.97;;;8.23;;
23702;SDS011;12030;50.376;8.762;2023-04-06T08:57:10;11.10;;;9.23;;
23702;SDS011;12030;50.376;8.762;2023-04-06T08:59:36;9.73;;;8.03;;
23702;SDS011;12030;50.376;8.762;2023-04-06T09:02:03;10.17;;;8.57;;
23702;SDS011;12030;50.376;8.762;2023-04-06T09:04:32;9.90;;;8.30;;
23702;SDS011;12030;50.376;8.762;2023-04-06T09:07:00;10.30;;;8.17;;
23702;SDS011;12030;50.376;8.762;2023-04-06T09:09:26;10.47;;;8.37;;
23702;SDS011;12030;50.376;8.762;2023-04-06T09:11:51;16.13;;;9.03;;
23702;SDS011;12030;50.376;8.762;2023-04-06T09:14:32;13.27;;;8.80;;
23702;SDS011;12030;50.376;8.762;2023-04-06T09:17:02;12.17;;;8.60;;
23702;SDS011;12030;50.376;8.762;2023-04-06T09:19:27;9.40;;;8.03;;
23702;SDS011;12030;50.376;8.762;2023-04-06T09:22:03;10.13;;;8.63;;
23702;SDS011;12030;50.376;8.762;2023-04-06T09:24:39;9.53;;;8.53;;
23702;SDS011;12030;50.376;8.762;2023-04-06T09:27:05;11.63;;;8.50;;
23702;SDS011;12030;50.376;8.762;2023-04-06T09:29:31;11.40;;;9.07;;
23702;SDS011;12030;50.376;8.762;2023-04-06T09:32:03;9.63;;;8.63;;
23702;SDS011;12030;50.376;8.762;2023-04-06T09:34:30;9.00;;;8.10;;
23702;SDS011;12030;50.376;8.762;2023-04-06T09:36:56;8.90;;;7.97;;
23702;SDS011;12030;50.376;8.762;2023-04-06T09:39:21;10.53;;;8.87;;
23702;SDS011;12030;50.376;8.762;2023-04-06T09:41:49;12.33;;;8.53;;
23702;SDS011;12030;50.376;8.762;2023-04-06T09:44:15;13.47;;;9.70;;
23702;SDS011;12030;50.376;8.762;2023-04-06T09:46:41;9.97;;;8.10;;
23702;SDS011;12030;50.376;8.762;2023-04-06T09:49:09;10.63;;;8.47;;
23702;SDS011;12030;50.376;8.762;2023-04-06T09:51:40;9.23;;;7.83;;
23702;SDS011;12030;50.376;8.762;2023-04-06T09:54:08;9.97;;;8.60;;
23702;SDS011;12030;50.376;8.762;2023-04-06T09:56:39;9.63;;;8.63;;
23702;SDS011;12030;50.376;8.762;2023-04-06T09:59:14;9.90;;;8.57;;
23702;SDS011;12030;50.376;8.762;2023-04-06T10:02:01;10.83;;;8.50;;
23702;SDS011;12030;50.376;8.762;2023-04-06T10:04:36;10.80;;;8.27;;
23702;SDS011;12030;50.376;8.762;2023-04-06T10:07:08;9.50;;;8.50;;
23702;SDS011;12030;50.376;8.762;2023-04-06T10:09:36;10.60;;;8.77;;
23702;SDS011;12030;50.376;8.762;2023-04-06T10:12:05;12.30;;;8.73;;
23702;SDS011;12030;50.376;8.762;2023-04-06T10:14:32;10.63;;;8.90;;
23702;SDS011;12030;50.376;8.762;2023-04-06T10:17:00;12.57;;;8.47;;
23702;SDS011;12030;50.376;8.762;2023-04-06T10:19:28;11.27;;;8.80;;
23702;SDS011;12030;50.376;8.762;2023-04-06T10:22:09;14.37;;;8.57;;
23702;SDS011;12030;50.376;8.762;2023-04-06T10:24:38;13.47;;;8.00;;
23702;SDS011;12030;50.376;8.762;2023-04-06T10:27:04;11.03;;;8.13;;
23702;SDS011;12030;50.376;8.762;2023-04-06T10:29:44;10.60;;;8.43;;
23702;SDS011;12030;50.376;8.762;2023-04-06T10:32:11;12.60;;;9.13;;
23702;SDS011;12030;50.376;8.762;2023-04-06T10:34:36;11.30;;;8.63;;
23702;SDS011;12030;50.376;8.762;2023-04-06T10:37:15;11.53;;;8.70;;
23702;SDS011;12030;50.376;8.762;2023-04-06T10:39:49;11.33;;;8.30;;
23702;SDS011;12030;50.376;8.762;2023-04-06T10:42:23;11.67;;;9.13;;
23702;SDS011;12030;50.376;8.762;2023-04-06T10:44:50;10.07;;;8.33;;
23702;SDS011;12030;50.376;8.762;2023-04-06T10:47:16;10.37;;;8.07;;
23702;SDS011;12030;50.376;8.762;2023-04-06T10:49:43;10.73;;;8.27;;
23702;SDS011;12030;50.376;8.762;2023-04-06T10:52:08;11.63;;;8.50;;
23702;SDS011;12030;50.376;8.762;2023-04-06T10:54:34;11.90;;;8.17;;
23702;SDS011;12030;50.376;8.762;2023-04-06T10:57:06;10.53;;;8.10;;
23702;SDS011;12030;50.376;8.762;2023-04-06T10:59:32;11.10;;;8.43;;
23702;SDS011;12030;50.376;8.762;2023-04-06T11:01:57;13.93;;;8.80;;
23702;SDS011;12030;50.376;8.762;2023-04-06T11:04:24;10.73;;;8.33;;
23702;SDS011;12030;50.376;8.762;2023-04-06T11:06:50;10.87;;;8.50;;
23702;SDS011;12030;50.376;8.762;2023-04-06T11:09:34;10.17;;;7.87;;
23702;SDS011;12030;50.376;8.762;2023-04-06T11:12:01;8.83;;;7.07;;
23702;SDS011;12030;50.376;8.762;2023-04-06T11:14:27;11.07;;;8.53;;
23702;SDS011;12030;50.376;8.762;2023-04-06T11:16:52;11.00;;;8.10;;
23702;SDS011;12030;50.376;8.762;2023-04-06T11:19:18;11.67;;;7.80;;
23702;SDS011;12030;50.376;8.762;2023-04-06T11:21:44;10.03;;;7.83;;
23702;SDS011;12030;50.376;8.762;2023-04-06T11:26:43;11.23;;;8.47;;
23702;SDS011;12030;50.376;8.762;2023-04-06T11:29:11;12.60;;;8.33;;
23702;SDS011;12030;50.376;8.762;2023-04-06T11:31:40;13.03;;;7.67;;
23702;SDS011;12030;50.376;8.762;2023-04-06T11:34:23;11.30;;;7.90;;
23702;SDS011;12030;50.376;8.762;2023-04-06T11:36:53;12.20;;;7.80;;
23702;SDS011;12030;50.376;8.762;2023-04-06T11:39:28;10.40;;;7.43;;
23702;SDS011;12030;50.376;8.762;2023-04-06T11:41:54;10.63;;;7.47;;
23702;SDS011;12030;50.376;8.762;2023-04-06T11:44:29;10.47;;;6.73;;
23702;SDS011;12030;50.376;8.762;2023-04-06T11:46:57;8.33;;;6.67;;
23702;SDS011;12030;50.376;8.762;2023-04-06T11:49:26;10.17;;;7.20;;
23702;SDS011;12030;50.376;8.762;2023-04-06T11:51:55;11.03;;;7.80;;
23702;SDS011;12030;50.376;8.762;2023-04-06T11:56:59;12.20;;;8.27;;
23702;SDS011;12030;50.376;8.762;2023-04-06T11:59:26;11.37;;;8.20;;
23702;SDS011;12030;50.376;8.762;2023-04-06T12:01:52;10.87;;;7.73;;
23702;SDS011;12030;50.376;8.762;2023-04-06T12:04:18;12.13;;;7.10;;
23702;SDS011;12030;50.376;8.762;2023-04-06T12:06:44;10.07;;;7.80;;
23702;SDS011;12030;50.376;8.762;2023-04-06T12:09:10;11.27;;;7.83;;
23702;SDS011;12030;50.376;8.762;2023-04-06T12:11:35;11.07;;;8.17;;
23702;SDS011;12030;50.376;8.762;2023-04-06T12:14:01;12.93;;;8.70;;
23702;SDS011;12030;50.376;8.762;2023-04-06T12:16:29;12.23;;;8.17;;
23702;SDS011;12030;50.376;8.762;2023-04-06T12:18:55;11.47;;;8.47;;
23702;SDS011;12030;50.376;8.762;2023-04-06T12:21:21;10.50;;;7.83;;
23702;SDS011;12030;50.376;8.762;2023-04-06T12:23:46;9.50;;;7.30;;
23702;SDS011;12030;50.376;8.762;2023-04-06T12:26:12;11.20;;;7.97;;
23702;SDS011;12030;50.376;8.762;2023-04-06T12:28:37;9.40;;;7.93;;
23702;SDS011;12030;50.376;8.762;2023-04-06T12:31:03;12.37;;;9.17;;
23702;SDS011;12030;50.376;8.762;2023-04-06T12:33:28;11.30;;;8.57;;
23702;SDS011;12030;50.376;8.762;2023-04-06T12:35:54;10.00;;;8.00;;
23702;SDS011;12030;50.376;8.762;2023-04-06T12:38:19;9.93;;;7.90;;
23702;SDS011;12030;50.376;8.762;2023-04-06T12:40:45;10.53;;;7.60;;
23702;SDS011;12030;50.376;8.762;2023-04-06T12:43:10;9.97;;;7.27;;
23702;SDS011;12030;50.376;8.762;2023-04-06T12:45:37;9.93;;;7.60;;
23702;SDS011;12030;50.376;8.762;2023-04-06T12:48:04;12.07;;;7.60;;
23702;SDS011;12030;50.376;8.762;2023-04-06T12:50:30;12.20;;;7.80;;
23702;SDS011;12030;50.376;8.762;2023-04-06T12:52:55;11.17;;;7.87;;
23702;SDS011;12030;50.376;8.762;2023-04-06T12:55:21;10.23;;;7.80;;
23702;SDS011;12030;50.376;8.762;2023-04-06T12:57:47;9.87;;;7.70;;
23702;SDS011;12030;50.376;8.762;2023-04-06T13:00:12;10.47;;;7.90;;
23702;SDS011;12030;50.376;8.762;2023-04-06T13:02:39;10.27;;;7.47;;
23702;SDS011;12030;50.376;8.762;2023-04-06T13:05:05;11.17;;;8.27;;
23702;SDS011;12030;50.376;8.762;2023-04-06T13:07:31;10.77;;;8.23;;
23702;SDS011;12030;50.376;8.762;2023-04-06T13:09:56;9.27;;;6.97;;
23702;SDS011;12030;50.376;8.762;2023-04-06T13:12:22;8.40;;;7.37;;
23702;SDS011;12030;50.376;8.762;2023-04-06T13:14:47;10.30;;;7.83;;
23702;SDS011;12030;50.376;8.762;2023-04-06T13:17:16;10.23;;;7.67;;
23702;SDS011;12030;50.376;8.762;2023-04-06T13:19:42;10.90;;;8.23;;
23702;SDS011;12030;50.376;8.762;2023-04-06T13:22:08;11.10;;;8.43;;
23702;SDS011;12030;50.376;8.762;2023-04-06T13:24:34;10.60;;;8.30;;
23702;SDS011;12030;50.376;8.762;2023-04-06T13:27:00;10.00;;;7.63;;
23702;SDS011;12030;50.376;8.762;2023-04-06T13:29:25;13.33;;;7.40;;
23702;SDS011;12030;50.376;8.762;2023-04-06T13:31:52;11.63;;;7.00;;
23702;SDS011;12030;50.376;8.762;2023-04-06T13:34:17;11.00;;;7.00;;
23702;SDS011;12030;50.376;8.762;2023-04-06T13:36:43;8.77;;;7.00;;
23702;SDS011;12030;50.376;8.762;2023-04-06T13:39:08;11.87;;;7.67;;
23702;SDS011;12030;50.376;8.762;2023-04-06T13:41:34;9.63;;;7.97;;
23702;SDS011;12030;50.376;8.762;2023-04-06T13:43:59;9.63;;;7.87;;
23702;SDS011;12030;50.376;8.762;2023-04-06T13:46:25;9.97;;;7.47;;
23702;SDS011;12030;50.376;8.762;2023-04-06T13:48:52;11.07;;;8.00;;
23702;SDS011;12030;50.376;8.762;2023-04-06T13:51:17;11.40;;;7.43;;
23702;SDS011;12030;50.376;8.762;2023-04-06T13:53:43;9.30;;;7.10;;
23702;SDS011;12030;50.376;8.762;2023-04-06T13:56:08;9.83;;;7.63;;
23702;SDS011;12030;50.376;8.762;2023-04-06T13:58:34;8.97;;;7.13;;
23702;SDS011;12030;50.376;8.762;2023-04-06T14:01:01;10.80;;;8.00;;
23702;SDS011;12030;50.376;8.762;2023-04-06T14:03:28;10.97;;;8.07;;
23702;SDS011;12030;50.376;8.762;2023-04-06T14:05:54;9.77;;;7.17;;
23702;SDS011;12030;50.376;8.762;2023-04-06T14:08:19;8.67;;;6.93;;
23702;SDS011;12030;50.376;8.762;2023-04-06T14:10:45;10.03;;;7.47;;
23702;SDS011;12030;50.376;8.762;2023-04-06T14:13:11;10.13;;;6.87;;
23702;SDS011;12030;50.376;8.762;2023-04-06T14:15:36;8.20;;;6.17;;
23702;SDS011;12030;50.376;8.762;2023-04-06T14:18:02;9.20;;;6.60;;
23702;SDS011;12030;50.376;8.762;2023-04-06T14:20:28;8.50;;;7.27;;
23702;SDS011;12030;50.376;8.762;2023-04-06T14:22:55;10.00;;;7.30;;
23702;SDS011;12030;50.376;8.762;2023-04-06T14:25:21;8.00;;;6.47;;
23702;SDS011;12030;50.376;8.762;2023-04-06T14:27:46;8.10;;;6.50;;
23702;SDS011;12030;50.376;8.762;2023-04-06T14:30:12;11.23;;;7.43;;
23702;SDS011;12030;50.376;8.762;2023-04-06T14:32:38;12.67;;;7.27;;
23702;SDS011;12030;50.376;8.762;2023-04-06T14:35:06;9.70;;;6.07;;
23702;SDS011;12030;50.376;8.762;2023-04-06T14:37:32;9.77;;;6.73;;
23702;SDS011;12030;50.376;8.762;2023-04-06T14:39:57;7.40;;;6.53;;
23702;SDS011;12030;50.376;8.762;2023-04-06T14:42:23;8.37;;;6.67;;